createdAt,value
2018-12-20T00:01:25.123Z,19.95
2018-12-20T00:03:58.827Z,19.63
2018-12-20T00:06:32.784Z,19.27
2018-12-20T00:09:08.050Z,20.77
2018-12-20T00:11:42.408Z,22.90
2018-12-20T00:14:16.529Z,24.03
2018-12-20T00:16:54.151Z,23.23
2018-12-20T00:19:29.888Z,27.80
2018-12-20T00:22:04.266Z,31.67
2018-12-20T00:24:40.181Z,28.37
2018-12-20T00:27:14.060Z,28.87
2018-12-20T00:29:50.149Z,28.10
2018-12-20T00:32:24.011Z,26.67
2018-12-20T00:34:58.578Z,26.70
2018-12-20T00:37:32.703Z,24.93
2018-12-20T00:40:08.101Z,25.00
2018-12-20T00:42:41.891Z,23.90
2018-12-20T00:45:15.988Z,24.77
2018-12-20T00:47:49.800Z,27.17
2018-12-20T00:50:24.289Z,29.50
2018-12-20T00:52:58.952Z,29.30
2018-12-20T00:55:33.881Z,36.33
2018-12-20T00:58:07.601Z,38.17
2018-12-20T01:00:42.148Z,35.83
2018-12-20T01:03:16.318Z,34.90
2018-12-20T01:05:51.080Z,32.83
2018-12-20T01:08:26.447Z,33.40
2018-12-20T01:11:01.844Z,31.43
2018-12-20T01:13:37.171Z,29.33
2018-12-20T01:16:11.453Z,27.97
2018-12-20T01:18:45.991Z,25.93
2018-12-20T01:21:21.563Z,23.52
2018-12-20T01:23:56.894Z,23.77
2018-12-20T01:26:32.472Z,27.40
2018-12-20T01:29:06.731Z,26.53
2018-12-20T01:31:40.706Z,24.53
2018-12-20T01:34:14.974Z,23.57
2018-12-20T01:36:49.002Z,28.33
2018-12-20T01:39:23.192Z,24.07
2018-12-20T01:41:57.469Z,20.70
2018-12-20T01:44:31.431Z,21.80
2018-12-20T01:47:05.733Z,22.97
2018-12-20T01:49:40.694Z,23.00
2018-12-20T01:52:15.692Z,18.40
2018-12-20T01:55:10.350Z,16.77
2018-12-20T01:57:45.598Z,15.80
2018-12-20T02:00:20.160Z,15.27
2018-12-20T02:02:55.542Z,15.57
2018-12-20T02:05:30.093Z,17.23
2018-12-20T02:08:07.036Z,15.50
2018-12-20T02:10:43.064Z,15.40
2018-12-20T02:13:17.285Z,13.57
2018-12-20T02:15:51.604Z,16.13
2018-12-20T02:18:27.472Z,16.80
2018-12-20T02:21:01.211Z,17.37
2018-12-20T02:23:35.942Z,16.10
2018-12-20T02:26:10.602Z,15.80
2018-12-20T02:28:45.540Z,15.58
2018-12-20T02:31:21.859Z,14.87
2018-12-20T02:33:57.299Z,13.88
2018-12-20T02:36:43.634Z,15.00
2018-12-20T02:39:18.366Z,14.45
2018-12-20T02:41:53.119Z,13.93
2018-12-20T02:44:27.316Z,18.90
2018-12-20T02:47:21.258Z,15.50
2018-12-20T02:49:56.706Z,14.57
2018-12-20T02:52:31.891Z,16.90
2018-12-20T02:55:06.027Z,16.33
2018-12-20T02:57:40.009Z,16.20
2018-12-20T03:00:14.033Z,17.73
2018-12-20T03:02:48.313Z,13.73
2018-12-20T03:05:25.327Z,15.00
2018-12-20T03:07:59.603Z,19.53
2018-12-20T03:10:34.438Z,17.05
2018-12-20T03:13:10.106Z,16.27
2018-12-20T03:15:53.316Z,22.90
2018-12-20T03:18:28.579Z,20.50
2018-12-20T03:21:04.510Z,23.37
2018-12-20T03:23:42.312Z,24.53
2018-12-20T03:26:17.537Z,25.43
2018-12-20T03:28:52.544Z,25.88
2018-12-20T03:31:28.429Z,21.63
2018-12-20T03:34:02.780Z,20.03
2018-12-20T03:36:36.974Z,20.75
2018-12-20T03:39:13.348Z,22.13
2018-12-20T03:41:47.860Z,25.03
2018-12-20T03:44:22.373Z,24.12
2018-12-20T03:46:56.598Z,24.67
2018-12-20T03:49:31.181Z,24.63
2018-12-20T03:52:06.135Z,28.83
2018-12-20T03:54:41.042Z,27.20
2018-12-20T03:57:16.163Z,26.33
2018-12-20T03:59:50.592Z,31.30
2018-12-20T04:02:27.521Z,30.43
2018-12-20T04:05:01.570Z,26.90
2018-12-20T04:07:35.418Z,26.93
2018-12-20T04:10:10.999Z,27.10
2018-12-20T04:12:45.406Z,25.95
2018-12-20T04:15:19.875Z,27.20
2018-12-20T04:17:54.188Z,26.23
2018-12-20T04:20:28.872Z,28.23
2018-12-20T04:23:03.064Z,27.67
2018-12-20T04:25:39.390Z,32.17
2018-12-20T04:28:15.894Z,27.93
2018-12-20T04:30:50.175Z,26.90
2018-12-20T04:33:24.541Z,27.10
2018-12-20T04:35:59.652Z,31.00
2018-12-20T04:38:33.845Z,28.37
2018-12-20T04:41:08.468Z,30.82
2018-12-20T04:43:42.120Z,31.97
2018-12-20T04:46:16.300Z,26.20
2018-12-20T04:48:50.775Z,26.97
2018-12-20T04:51:25.175Z,31.25
2018-12-20T04:53:59.489Z,26.62
2018-12-20T04:56:33.238Z,28.12
2018-12-20T04:59:07.812Z,32.63
2018-12-20T05:01:41.407Z,35.60
2018-12-20T05:04:15.458Z,28.38
2018-12-20T05:06:49.973Z,32.03
2018-12-20T05:09:55.770Z,29.95
2018-12-20T05:12:31.607Z,27.95
2018-12-20T05:15:13.540Z,30.50
2018-12-20T05:17:47.382Z,28.85
2018-12-20T05:20:21.757Z,29.25
2018-12-20T05:22:55.774Z,28.00
2018-12-20T05:25:30.181Z,27.70
2018-12-20T05:28:04.149Z,28.92
2018-12-20T05:30:38.864Z,28.05
2018-12-20T05:33:12.648Z,24.70
2018-12-20T05:35:46.895Z,27.20
2018-12-20T05:38:21.403Z,35.33
2018-12-20T05:40:55.669Z,43.80
2018-12-20T05:43:31.211Z,34.98
2018-12-20T05:46:06.333Z,34.88
2018-12-20T05:49:12.929Z,35.25
2018-12-20T05:51:47.658Z,37.98
2018-12-20T05:54:53.846Z,32.13
2018-12-20T05:57:28.598Z,40.20
2018-12-20T06:00:02.657Z,31.83
2018-12-20T06:02:37.819Z,28.07
2018-12-20T06:05:16.311Z,32.75
2018-12-20T06:07:50.656Z,30.90
2018-12-20T06:10:25.935Z,26.42
2018-12-20T06:13:33.850Z,25.73
2018-12-20T06:16:13.072Z,31.15
2018-12-20T06:21:26.208Z,20.90
2018-12-20T06:23:59.814Z,29.90
2018-12-20T06:26:33.659Z,23.07
2018-12-20T06:29:09.267Z,22.95
2018-12-20T06:36:44.693Z,23.10
2018-12-20T06:39:18.668Z,19.65
2018-12-20T06:41:52.416Z,17.05
2018-12-20T06:44:58.410Z,20.25
2018-12-20T06:47:32.855Z,20.52
2018-12-20T06:50:07.837Z,22.22
2018-12-20T06:52:41.901Z,22.45
2018-12-20T06:55:15.704Z,23.50
2018-12-20T06:57:49.327Z,24.75
2018-12-20T07:00:24.927Z,26.20
2018-12-20T07:03:00.559Z,25.35
2018-12-20T07:05:35.498Z,27.87
2018-12-20T07:08:09.531Z,27.40
2018-12-20T07:10:44.288Z,31.10
2018-12-20T07:13:50.884Z,30.43
2018-12-20T07:16:29.419Z,30.65
2018-12-20T07:19:02.348Z,30.37
2018-12-20T07:21:36.732Z,28.05
2018-12-20T07:24:11.137Z,30.90
2018-12-20T07:26:45.283Z,29.00
2018-12-20T07:29:19.978Z,30.25
2018-12-20T07:31:54.177Z,29.20
2018-12-20T07:34:28.035Z,28.30
2018-12-20T07:37:33.695Z,29.12
2018-12-20T07:40:08.590Z,29.50
2018-12-20T07:43:15.309Z,31.93
2018-12-20T07:45:50.648Z,32.28
2018-12-20T07:48:57.821Z,28.02
2018-12-20T07:51:32.331Z,30.62
2018-12-20T07:54:06.260Z,31.33
2018-12-20T07:56:40.545Z,33.10
2018-12-20T07:59:14.777Z,36.60
2018-12-20T08:02:13.074Z,38.10
2018-12-20T08:04:47.066Z,58.45
2018-12-20T08:07:22.181Z,60.80
2018-12-20T08:09:56.163Z,53.65
2018-12-20T08:12:42.473Z,54.33
2018-12-20T08:15:16.720Z,57.70
2018-12-20T08:17:58.576Z,55.43
2018-12-20T08:20:35.802Z,53.13
2018-12-20T08:23:11.342Z,59.80
2018-12-20T08:25:48.301Z,62.83
2018-12-20T08:28:22.397Z,55.73
2018-12-20T08:30:56.274Z,58.13
2018-12-20T08:33:31.141Z,58.48
2018-12-20T08:36:05.984Z,54.08
2018-12-20T08:38:40.907Z,53.28
2018-12-20T08:41:14.836Z,52.05
2018-12-20T08:43:48.930Z,47.98
2018-12-20T08:46:22.582Z,40.20
2018-12-20T08:48:57.248Z,38.67
2018-12-20T08:51:32.572Z,37.93
2018-12-20T08:54:06.815Z,39.20
2018-12-20T08:56:41.147Z,39.25
2018-12-20T08:59:14.927Z,48.35
2018-12-20T09:01:49.490Z,38.45
2018-12-20T09:04:23.552Z,35.83
2018-12-20T09:06:57.917Z,40.25
2018-12-20T09:09:33.324Z,36.00
2018-12-20T09:12:07.305Z,35.55
2018-12-20T09:14:41.231Z,35.78
2018-12-20T09:17:17.821Z,33.20
2018-12-20T09:19:52.069Z,28.70
2018-12-20T09:22:27.215Z,36.90
2018-12-20T09:25:01.029Z,36.98
2018-12-20T09:27:34.997Z,31.77
2018-12-20T09:30:09.055Z,32.35
2018-12-20T09:32:43.170Z,30.17
2018-12-20T09:35:18.222Z,36.00
2018-12-20T09:37:52.487Z,37.63
2018-12-20T09:40:27.151Z,40.05
2018-12-20T09:43:13.191Z,40.75
2018-12-20T09:45:47.153Z,42.13
2018-12-20T09:48:23.248Z,37.28
2018-12-20T09:53:41.968Z,33.58
2018-12-20T09:56:15.742Z,35.35
2018-12-20T09:59:02.008Z,35.33
2018-12-20T10:01:36.141Z,40.17
2018-12-20T10:04:09.971Z,39.75
2018-12-20T10:06:44.077Z,40.65
2018-12-20T10:09:17.859Z,41.50
2018-12-20T10:11:52.578Z,43.40
2018-12-20T10:14:27.028Z,47.10
2018-12-20T10:17:01.650Z,44.53
2018-12-20T10:19:36.505Z,43.80
2018-12-20T10:22:12.139Z,43.28
2018-12-20T10:24:46.840Z,43.68
2018-12-20T10:27:22.224Z,51.48
2018-12-20T10:29:56.892Z,45.67
2018-12-20T10:32:31.867Z,48.10
2018-12-20T10:35:06.982Z,51.15
2018-12-20T10:37:43.348Z,50.70
2018-12-20T10:40:17.710Z,52.23
2018-12-20T10:42:52.202Z,54.60
2018-12-20T10:45:28.170Z,57.08
2018-12-20T10:48:02.693Z,57.90
2018-12-20T10:50:38.358Z,57.63
2018-12-20T10:53:13.617Z,56.37
2018-12-20T10:55:48.959Z,61.00
2018-12-20T10:58:24.420Z,64.37
2018-12-20T11:01:03.001Z,68.45
2018-12-20T11:03:42.105Z,63.08
2018-12-20T11:06:21.030Z,64.53
2018-12-20T11:09:34.360Z,64.25
2018-12-20T11:12:11.502Z,66.43
2018-12-20T11:14:46.051Z,69.33
2018-12-20T11:17:22.014Z,66.00
2018-12-20T11:19:57.461Z,71.57
2018-12-20T11:22:33.520Z,79.95
2018-12-20T11:25:08.444Z,82.47
2018-12-20T11:27:57.768Z,79.70
2018-12-20T11:30:35.441Z,76.97
2018-12-20T11:33:12.024Z,73.30
2018-12-20T11:35:47.024Z,82.53
2018-12-20T11:38:23.909Z,194.00
2018-12-20T11:41:00.318Z,131.93
2018-12-20T11:44:06.228Z,142.95
2018-12-20T11:47:12.487Z,145.20
2018-12-20T11:50:10.150Z,121.00
2018-12-20T11:52:45.898Z,93.57
2018-12-20T11:55:21.552Z,94.20
2018-12-20T11:57:57.162Z,104.10
2018-12-20T12:00:37.940Z,105.32
2018-12-20T12:03:14.048Z,91.87
2018-12-20T12:05:49.877Z,101.23
2018-12-20T12:08:24.270Z,99.50
2018-12-20T12:10:59.503Z,81.90
2018-12-20T12:13:35.878Z,77.82
2018-12-20T12:16:10.336Z,77.30
2018-12-20T12:18:45.009Z,78.10
2018-12-20T12:21:19.840Z,76.83
2018-12-20T12:24:11.103Z,76.33
2018-12-20T12:26:45.471Z,79.70
2018-12-20T12:29:21.235Z,78.10
2018-12-20T12:32:19.831Z,76.43
2018-12-20T12:34:54.300Z,72.17
2018-12-20T12:37:30.435Z,77.73
2018-12-20T12:40:05.493Z,90.47
2018-12-20T12:42:41.490Z,78.97
2018-12-20T12:45:17.910Z,76.00
2018-12-20T12:48:25.200Z,69.57
2018-12-20T12:51:00.111Z,61.13
2018-12-20T12:54:00.551Z,64.70
2018-12-20T12:56:36.199Z,67.57
2018-12-20T12:59:10.797Z,69.47
2018-12-20T13:01:45.723Z,69.17
2018-12-20T13:04:51.794Z,63.83
2018-12-20T13:07:58.112Z,67.20
2018-12-20T13:10:34.238Z,74.05
2018-12-20T13:13:09.300Z,73.87
2018-12-20T13:15:43.947Z,75.03
2018-12-20T13:18:18.851Z,75.97
2018-12-20T13:20:53.118Z,71.97
2018-12-20T13:23:28.250Z,75.87
2018-12-20T13:26:03.950Z,76.05
2018-12-20T13:28:37.995Z,78.17
2018-12-20T13:31:13.264Z,75.97
2018-12-20T13:33:48.817Z,80.67
2018-12-20T13:36:22.871Z,81.50
2018-12-20T13:38:57.687Z,75.43
2018-12-20T13:41:34.500Z,73.60
2018-12-20T13:44:09.990Z,75.67
2018-12-20T13:46:44.705Z,78.70
2018-12-20T13:49:19.097Z,74.60
2018-12-20T13:51:52.911Z,74.17
2018-12-20T13:54:52.142Z,77.90
2018-12-20T13:57:26.326Z,79.90
2018-12-20T14:00:00.783Z,83.30
2018-12-20T14:02:35.032Z,80.77
2018-12-20T14:05:10.814Z,83.57
2018-12-20T14:07:46.010Z,78.80
2018-12-20T14:10:20.305Z,77.80
2018-12-20T14:12:54.353Z,77.87
2018-12-20T14:15:28.583Z,79.97
2018-12-20T14:18:03.768Z,73.30
2018-12-20T14:20:38.192Z,77.20
2018-12-20T14:23:16.460Z,75.30
2018-12-20T14:25:50.892Z,73.97
2018-12-20T14:28:24.279Z,71.17
2018-12-20T14:30:59.276Z,75.10
2018-12-20T14:33:34.245Z,76.30
2018-12-20T14:36:10.173Z,72.93
2018-12-20T14:38:45.644Z,70.33
2018-12-20T14:41:21.366Z,71.00
2018-12-20T14:43:55.544Z,73.07
2018-12-20T14:46:30.252Z,71.37
2018-12-20T14:49:04.266Z,72.07
2018-12-20T14:51:39.314Z,72.43
2018-12-20T14:54:21.580Z,72.53
2018-12-20T14:56:59.734Z,75.40
2018-12-20T14:59:33.916Z,71.87
2018-12-20T15:02:08.059Z,77.80
2018-12-20T15:04:42.276Z,76.63
2018-12-20T15:07:16.739Z,78.87
2018-12-20T15:10:07.583Z,77.33
2018-12-20T15:12:41.499Z,70.73
2018-12-20T15:15:15.874Z,78.83
2018-12-20T15:17:51.002Z,79.70
2018-12-20T15:20:24.919Z,82.07
2018-12-20T15:22:59.971Z,93.60
2018-12-20T15:25:34.186Z,93.50
2018-12-20T15:28:09.789Z,96.30
2018-12-20T15:30:44.068Z,95.07
2018-12-20T15:33:29.118Z,102.97
2018-12-20T15:36:03.133Z,102.73
2018-12-20T15:38:36.764Z,102.73
2018-12-20T15:41:10.763Z,101.57
2018-12-20T15:43:44.605Z,99.57
2018-12-20T15:46:19.206Z,95.97
2018-12-20T15:48:56.422Z,100.23
2018-12-20T15:51:31.185Z,97.03
2018-12-20T15:54:05.098Z,97.90
2018-12-20T15:56:39.604Z,99.00
2018-12-20T15:59:13.913Z,102.47
2018-12-20T16:01:47.996Z,101.67
2018-12-20T16:04:22.463Z,104.07
2018-12-20T16:06:56.372Z,104.90
2018-12-20T16:09:34.756Z,102.50
2018-12-20T16:12:08.569Z,110.13
2018-12-20T16:14:43.238Z,103.33
2018-12-20T16:17:16.979Z,111.80
2018-12-20T16:19:51.251Z,106.90
2018-12-20T16:22:25.346Z,105.77
2018-12-20T16:25:00.047Z,99.90
2018-12-20T16:27:34.149Z,109.37
2018-12-20T16:30:08.346Z,107.07
2018-12-20T16:32:42.171Z,105.27
2018-12-20T16:35:17.083Z,95.97
2018-12-20T16:37:59.026Z,95.80
2018-12-20T16:40:32.669Z,106.17
2018-12-20T16:43:06.218Z,110.10
2018-12-20T16:45:41.108Z,109.57
2018-12-20T16:48:18.546Z,106.73
2018-12-20T16:50:52.715Z,101.37
2018-12-20T16:53:26.802Z,105.10
2018-12-20T16:56:02.125Z,104.27
2018-12-20T16:58:37.293Z,105.27
2018-12-20T17:01:11.344Z,108.33
2018-12-20T17:03:45.191Z,107.47
2018-12-20T17:06:19.073Z,109.47
2018-12-20T17:08:52.940Z,109.50
2018-12-20T17:11:27.038Z,106.97
2018-12-20T17:14:01.093Z,109.70
2018-12-20T17:16:34.971Z,111.77
2018-12-20T17:19:08.797Z,109.93
2018-12-20T17:21:43.404Z,109.73
2018-12-20T17:24:17.272Z,101.90
2018-12-20T17:26:52.588Z,108.30
2018-12-20T17:29:26.901Z,105.20
2018-12-20T17:32:00.644Z,102.07
2018-12-20T17:34:35.794Z,93.33
2018-12-20T17:37:42.142Z,89.20
2018-12-20T17:40:17.169Z,90.73
2018-12-20T17:42:51.016Z,92.77
2018-12-20T17:45:25.216Z,86.97
2018-12-20T17:48:00.287Z,89.90
2018-12-20T17:50:35.932Z,94.17
2018-12-20T17:53:10.116Z,85.10
2018-12-20T17:55:44.892Z,87.60
2018-12-20T17:58:19.093Z,81.07
2018-12-20T18:00:53.497Z,82.40
2018-12-20T18:03:28.168Z,77.77
2018-12-20T18:06:02.008Z,77.93
2018-12-20T18:08:36.028Z,74.90
2018-12-20T18:11:10.338Z,78.67
2018-12-20T18:13:46.776Z,80.10
2018-12-20T18:16:21.118Z,75.07
2018-12-20T18:18:55.061Z,78.83
2018-12-20T18:21:35.489Z,76.57
2018-12-20T18:24:11.242Z,74.13
2018-12-20T18:26:45.320Z,76.53
2018-12-20T18:29:19.196Z,78.97
2018-12-20T18:31:56.581Z,80.03
2018-12-20T18:34:31.471Z,77.57
2018-12-20T18:37:05.817Z,77.23
2018-12-20T18:39:39.989Z,80.10
2018-12-20T18:42:14.645Z,78.00
2018-12-20T18:44:51.065Z,72.90
2018-12-20T18:47:26.475Z,71.73
2018-12-20T18:50:00.116Z,69.23
2018-12-20T18:52:35.081Z,70.27
2018-12-20T18:55:08.806Z,70.40
2018-12-20T18:57:42.709Z,71.30
2018-12-20T19:00:16.584Z,65.20
2018-12-20T19:02:51.027Z,64.50
2018-12-20T19:05:25.664Z,67.93
2018-12-20T19:07:59.845Z,65.10
2018-12-20T19:10:33.451Z,61.40
2018-12-20T19:13:07.780Z,61.40
2018-12-20T19:15:41.562Z,62.53
2018-12-20T19:18:15.518Z,66.47
2018-12-20T19:20:52.086Z,63.93
2018-12-20T19:23:26.291Z,60.13
2018-12-20T19:26:00.736Z,60.30
2018-12-20T19:28:34.931Z,61.30
2018-12-20T19:31:08.784Z,59.10
2018-12-20T19:33:42.883Z,60.37
2018-12-20T19:36:18.346Z,57.33
2018-12-20T19:39:05.616Z,57.07
2018-12-20T19:41:39.419Z,55.10
2018-12-20T19:44:13.438Z,56.93
2018-12-20T19:46:48.983Z,56.33
2018-12-20T19:49:24.684Z,56.77
2018-12-20T19:51:58.911Z,57.10
2018-12-20T19:54:34.899Z,59.07
2018-12-20T19:57:40.929Z,60.13
2018-12-20T20:00:17.865Z,55.40
2018-12-20T20:02:52.243Z,58.77
2018-12-20T20:05:27.306Z,59.43
2018-12-20T20:08:01.231Z,56.00
2018-12-20T20:10:36.534Z,55.97
2018-12-20T20:13:42.384Z,53.73
2018-12-20T20:16:16.562Z,52.07
2018-12-20T20:19:21.075Z,55.40
2018-12-20T20:21:58.449Z,54.60
2018-12-20T20:24:35.195Z,57.13
2018-12-20T20:27:12.890Z,56.10
2018-12-20T20:29:47.439Z,54.60
2018-12-20T20:32:22.052Z,56.00
2018-12-20T20:34:58.819Z,57.57
2018-12-20T20:37:32.740Z,56.23
2018-12-20T20:40:08.023Z,59.43
2018-12-20T20:42:41.946Z,58.83
2018-12-20T20:45:16.424Z,60.87
2018-12-20T20:47:50.680Z,62.30
2018-12-20T20:50:25.026Z,59.20
2018-12-20T20:52:58.807Z,64.10
2018-12-20T20:55:33.157Z,61.37
2018-12-20T20:58:08.664Z,63.20
2018-12-20T21:00:43.244Z,58.27
2018-12-20T21:03:17.508Z,62.43
2018-12-20T21:05:51.589Z,59.48
2018-12-20T21:08:26.147Z,58.07
2018-12-20T21:11:00.179Z,58.43
2018-12-20T21:13:35.147Z,57.23
2018-12-20T21:16:09.459Z,57.40
2018-12-20T21:18:43.362Z,62.30
2018-12-20T21:21:18.167Z,58.93
2018-12-20T21:23:53.357Z,59.83
2018-12-20T21:26:27.534Z,59.37
2018-12-20T21:29:02.113Z,58.27
2018-12-20T21:31:35.871Z,56.87
2018-12-20T21:34:10.070Z,58.70
2018-12-20T21:36:44.495Z,56.50
2018-12-20T21:39:19.645Z,60.77
2018-12-20T21:41:53.917Z,58.53
2018-12-20T21:44:59.418Z,55.77
2018-12-20T21:47:33.723Z,54.57
2018-12-20T21:50:08.899Z,57.53
2018-12-20T21:52:43.481Z,55.07
2018-12-20T21:55:17.580Z,55.20
2018-12-20T21:57:52.689Z,51.13
2018-12-20T22:00:26.979Z,57.17
2018-12-20T22:03:01.504Z,54.83
2018-12-20T22:05:35.520Z,54.17
2018-12-20T22:08:09.843Z,53.33
2018-12-20T22:10:45.110Z,53.57
2018-12-20T22:13:22.040Z,53.67
2018-12-20T22:15:55.999Z,49.77
2018-12-20T22:18:30.178Z,49.77
2018-12-20T22:21:04.637Z,49.40
2018-12-20T22:23:40.809Z,49.10
2018-12-20T22:26:15.792Z,48.50
2018-12-20T22:28:56.942Z,47.47
2018-12-20T22:31:31.982Z,48.03
2018-12-20T22:34:06.061Z,47.17
2018-12-20T22:36:56.244Z,45.20
2018-12-20T22:39:30.351Z,44.63
2018-12-20T22:42:04.552Z,45.83
2018-12-20T22:44:38.746Z,46.50
2018-12-20T22:47:12.841Z,45.47
2018-12-20T22:50:06.714Z,43.57
2018-12-20T22:52:40.513Z,44.17
2018-12-20T22:55:14.702Z,42.23
2018-12-20T22:57:49.872Z,41.90
2018-12-20T23:00:24.349Z,41.17
2018-12-20T23:02:58.538Z,42.37
2018-12-20T23:05:32.840Z,42.13
2018-12-20T23:08:06.713Z,39.10
2018-12-20T23:10:40.933Z,41.37
2018-12-20T23:13:14.727Z,40.17
2018-12-20T23:15:49.226Z,43.00
2018-12-20T23:18:23.561Z,40.20
2018-12-20T23:21:04.908Z,42.43
2018-12-20T23:23:34.366Z,42.00
2018-12-20T23:26:08.350Z,42.00
2018-12-20T23:28:42.734Z,41.73
2018-12-20T23:31:17.191Z,44.23
2018-12-20T23:33:52.240Z,41.80
2018-12-20T23:36:26.160Z,40.83
2018-12-20T23:39:00.287Z,39.17
2018-12-20T23:41:35.226Z,43.60
2018-12-20T23:44:09.174Z,41.93
2018-12-20T23:46:43.536Z,41.27
2018-12-20T23:49:17.659Z,39.07
2018-12-20T23:51:51.742Z,41.27
2018-12-20T23:54:25.949Z,41.80
2018-12-20T23:56:59.936Z,40.57
2018-12-20T23:59:34.393Z,43.10
